CheckWX is a tool to help pilots better visualize weather data.  It is not intended as a substitute for an official pre-flight weather briefing.

11:38:45 UTC

EGPD METAR
Aberdeen Dyce Airport
Aberdeen, United Kingdom
Current

19 mins ago

EGPD 021120Z AUTO 35005KT 290V050 9999 FEW027 BKN031 BKN047 13/06 Q1011 NOSIG
Observed
Jul-2 @ 11:20 UTC
Wind
  • 350° at 5 KTS
Visibility
10,000+ meters
Flight Rules
VFR
Cloud Levels
  • Few at 2,700' AGL
  • Broken at 3,100' AGL
  • Broken at 4,700' AGL
Temperature
13°C / 55°F
Dewpoint
C / 43°F
Humidity
63%
Altimeter
29.85" Hg
Pressure
1010.92 hPa
Previous

49 mins ago

EGPD 021050Z AUTO 34006KT 270V050 9999 BKN030 OVC041 12/05 Q1011 NOSIG
Observed
Jul-2 @ 10:50 UTC
Wind
  • 340° at 6 KTS
Visibility
10,000+ meters
Flight Rules
MVFR
Cloud Levels
  • Broken at 3,000' AGL
  • Overcast at 4,100' AGL
Temperature
12°C / 54°F
Dewpoint
C / 41°F
Humidity
63%
Altimeter
29.85" Hg
Pressure
1010.92 hPa
Previous

1 hour ago

EGPD 021020Z AUTO 32006KT 290V010 9999 OVC042 12/06 Q1011 NOSIG
Observed
Jul-2 @ 10:20 UTC
Wind
  • 320° at 6 KTS
Visibility
10,000+ meters
Flight Rules
VFR
Cloud Levels
  • Overcast at 4,200' AGL
Temperature
12°C / 54°F
Dewpoint
C / 43°F
Humidity
67%
Altimeter
29.85" Hg
Pressure
1010.92 hPa